createdAt,value
2023-10-21T00:00:40.708Z,100.00
2023-10-21T00:03:10.646Z,100.00
2023-10-21T00:05:41.759Z,100.00
2023-10-21T00:08:11.664Z,100.00
2023-10-21T00:10:44.212Z,100.00
2023-10-21T00:13:14.156Z,100.00
2023-10-21T00:15:44.301Z,100.00
2023-10-21T00:18:14.286Z,100.00
2023-10-21T00:20:44.242Z,100.00
2023-10-21T00:23:14.101Z,100.00
2023-10-21T00:25:46.580Z,100.00
2023-10-21T00:28:16.545Z,100.00
2023-10-21T00:30:49.581Z,100.00
2023-10-21T00:33:19.562Z,100.00
2023-10-21T00:35:49.673Z,100.00
2023-10-21T00:38:20.235Z,100.00
2023-10-21T00:40:56.997Z,100.00
2023-10-21T00:43:37.543Z,100.00
2023-10-21T00:46:10.925Z,100.00
2023-10-21T00:48:41.666Z,100.00
2023-10-21T00:51:13.469Z,100.00
2023-10-21T00:53:44.199Z,100.00
2023-10-21T00:56:16.944Z,100.00
2023-10-21T00:58:46.886Z,100.00
2023-10-21T01:01:16.826Z,100.00
2023-10-21T01:03:47.200Z,100.00
2023-10-21T01:06:17.388Z,100.00
2023-10-21T01:08:48.435Z,100.00
2023-10-21T01:11:20.950Z,100.00
2023-10-21T01:13:52.450Z,100.00
2023-10-21T01:16:22.481Z,100.00
2023-10-21T01:18:52.896Z,100.00
2023-10-21T01:21:22.938Z,100.00
2023-10-21T01:23:55.562Z,100.00
2023-10-21T01:26:25.511Z,100.00
2023-10-21T01:28:55.432Z,100.00
2023-10-21T01:31:25.268Z,100.00
2023-10-21T01:33:55.180Z,100.00
2023-10-21T01:36:25.272Z,100.00
2023-10-21T01:38:57.804Z,100.00
2023-10-21T01:41:27.762Z,100.00
2023-10-21T01:43:57.672Z,100.00
2023-10-21T01:46:29.350Z,100.00
2023-10-21T01:48:59.336Z,100.00
2023-10-21T01:51:29.165Z,100.00
2023-10-21T01:54:01.799Z,100.00
2023-10-21T01:56:32.085Z,100.00
2023-10-21T01:59:01.973Z,100.00
2023-10-21T02:01:31.949Z,100.00
2023-10-21T02:04:01.938Z,100.00
2023-10-21T02:06:31.888Z,100.00
2023-10-21T02:09:06.053Z,100.00
2023-10-21T02:11:35.986Z,100.00
2023-10-21T02:14:05.822Z,100.00
2023-10-21T02:16:35.745Z,100.00
2023-10-21T02:19:05.619Z,100.00
2023-10-21T02:21:35.489Z,100.00
2023-10-21T02:24:08.912Z,100.00
2023-10-21T02:26:41.354Z,100.00
2023-10-21T02:29:11.998Z,100.00
2023-10-21T02:31:42.001Z,100.00
2023-10-21T02:34:13.655Z,100.00
2023-10-21T02:36:43.625Z,100.00
2023-10-21T02:39:17.485Z,100.00
2023-10-21T02:41:48.927Z,100.00
2023-10-21T02:44:18.931Z,100.00
2023-10-21T02:46:49.644Z,100.00
2023-10-21T02:49:19.605Z,100.00
2023-10-21T02:51:50.548Z,100.00
2023-10-21T02:54:23.202Z,100.00
2023-10-21T02:56:53.139Z,100.00
2023-10-21T02:59:23.042Z,100.00
2023-10-21T03:01:52.982Z,100.00
2023-10-21T03:04:22.952Z,100.00
2023-10-21T03:06:55.378Z,100.00
2023-10-21T03:09:28.471Z,100.00
2023-10-21T03:11:58.340Z,100.00
2023-10-21T03:14:28.219Z,100.00
2023-10-21T03:16:58.069Z,100.00
2023-10-21T03:19:27.990Z,100.00
2023-10-21T03:21:58.288Z,100.00
2023-10-21T03:24:30.809Z,100.00
2023-10-21T03:27:00.816Z,100.00
2023-10-21T03:29:31.010Z,100.00
2023-10-21T03:32:01.107Z,100.00
2023-10-21T03:34:31.013Z,100.00
2023-10-21T03:37:00.935Z,100.00
2023-10-21T03:39:33.588Z,100.00
2023-10-21T03:42:03.628Z,100.00
2023-10-21T03:44:33.640Z,100.00
2023-10-21T03:47:03.642Z,100.00
2023-10-21T03:49:33.577Z,100.00
2023-10-21T03:52:04.754Z,100.00
2023-10-21T03:54:37.418Z,100.00
2023-10-21T03:57:07.901Z,100.00
2023-10-21T03:59:39.329Z,100.00
2023-10-21T04:02:09.467Z,100.00
2023-10-21T04:04:39.340Z,100.00
2023-10-21T04:07:09.583Z,100.00
2023-10-21T04:09:42.008Z,100.00
2023-10-21T04:12:13.483Z,100.00
2023-10-21T04:14:44.014Z,100.00
2023-10-21T04:17:13.875Z,100.00
2023-10-21T04:19:43.762Z,100.00
2023-10-21T04:22:13.891Z,100.00
2023-10-21T04:24:46.423Z,100.00
2023-10-21T04:27:16.271Z,100.00
2023-10-21T04:29:46.487Z,100.00
2023-10-21T04:32:16.798Z,100.00
2023-10-21T04:34:46.756Z,100.00
2023-10-21T04:37:16.630Z,100.00
2023-10-21T04:39:49.150Z,100.00
2023-10-21T04:42:19.049Z,100.00
2023-10-21T04:44:48.963Z,100.00
2023-10-21T04:47:19.913Z,100.00
2023-10-21T04:49:49.902Z,100.00
2023-10-21T04:52:20.598Z,100.00
2023-10-21T04:54:53.268Z,100.00
2023-10-21T04:57:23.146Z,100.00
2023-10-21T04:59:53.354Z,100.00
2023-10-21T05:02:23.455Z,100.00
2023-10-21T05:04:53.497Z,100.00
2023-10-21T05:07:23.957Z,100.00
2023-10-21T05:09:56.686Z,100.00
2023-10-21T05:12:26.684Z,100.00
2023-10-21T05:14:56.620Z,100.00
2023-10-21T05:17:26.550Z,100.00
2023-10-21T05:19:56.392Z,100.00
2023-10-21T05:22:26.218Z,100.00
2023-10-21T05:24:59.766Z,100.00
2023-10-21T05:27:30.840Z,100.00
2023-10-21T05:30:00.793Z,100.00
2023-10-21T05:32:30.733Z,100.00
2023-10-21T05:35:00.761Z,100.00
2023-10-21T05:37:30.579Z,100.00
2023-10-21T05:40:04.025Z,100.00
2023-10-21T05:42:34.286Z,100.00
2023-10-21T05:45:04.216Z,100.00
2023-10-21T05:47:34.202Z,100.00
2023-10-21T05:50:04.177Z,100.00
2023-10-21T05:52:34.024Z,100.00
2023-10-21T05:55:07.098Z,100.00
2023-10-21T05:57:37.071Z,100.00
2023-10-21T06:00:08.397Z,100.00
2023-10-21T06:02:38.319Z,100.00
2023-10-21T06:05:08.733Z,100.00
2023-10-21T06:07:38.858Z,100.00
2023-10-21T06:10:13.071Z,100.00
2023-10-21T06:12:46.760Z,100.00
2023-10-21T06:15:18.304Z,100.00
2023-10-21T06:17:48.613Z,100.00
2023-10-21T06:20:18.789Z,100.00
2023-10-21T06:22:49.148Z,100.00
2023-10-21T06:25:21.691Z,100.00
2023-10-21T06:27:51.525Z,100.00
2023-10-21T06:30:21.541Z,100.00
2023-10-21T06:32:51.537Z,100.00
2023-10-21T06:35:21.482Z,100.00
2023-10-21T06:37:52.506Z,100.00
2023-10-21T06:40:36.302Z,100.00
2023-10-21T06:43:13.155Z,100.00
2023-10-21T06:45:43.060Z,100.00
2023-10-21T06:48:10.337Z,100.00
2023-10-21T06:50:40.279Z,100.00
2023-10-21T06:53:11.433Z,100.00
2023-10-21T06:55:48.101Z,100.00
2023-10-21T06:58:18.054Z,100.00
2023-10-21T07:00:47.868Z,100.00
2023-10-21T07:03:18.601Z,100.00
2023-10-21T07:11:33.419Z,100.00
2023-10-21T07:14:03.538Z,100.00
2023-10-21T07:16:33.570Z,100.00
2023-10-21T07:19:03.467Z,100.00
2023-10-21T07:21:34.886Z,100.00
2023-10-21T07:24:05.172Z,100.00
2023-10-21T07:26:37.698Z,100.00
2023-10-21T07:29:08.749Z,100.00
2023-10-21T07:31:39.414Z,100.00
2023-10-21T07:34:09.548Z,100.00
2023-10-21T07:36:39.661Z,100.00
2023-10-21T07:39:09.914Z,100.00
2023-10-21T07:41:45.100Z,100.00
2023-10-21T07:44:18.009Z,100.00
2023-10-21T07:46:49.231Z,100.00
2023-10-21T07:49:19.625Z,100.00
2023-10-21T07:51:49.972Z,100.00
2023-10-21T07:54:19.894Z,100.00
2023-10-21T07:56:53.599Z,100.00
2023-10-21T07:59:23.932Z,100.00
2023-10-21T08:01:54.374Z,100.00
2023-10-21T08:04:25.262Z,100.00
2023-10-21T08:06:55.362Z,100.00
2023-10-21T08:09:25.353Z,100.00
2023-10-21T08:11:58.501Z,100.00
2023-10-21T08:14:31.766Z,100.00
2023-10-21T08:17:01.831Z,100.00
2023-10-21T08:19:32.499Z,100.00
2023-10-21T08:22:02.471Z,100.00
2023-10-21T08:24:33.372Z,100.00
2023-10-21T08:27:05.990Z,100.00
2023-10-21T08:29:35.966Z,100.00
2023-10-21T08:32:05.982Z,100.00
2023-10-21T08:34:38.516Z,100.00
2023-10-21T08:37:09.027Z,100.00
2023-10-21T08:39:39.414Z,100.00
2023-10-21T08:42:12.613Z,100.00
2023-10-21T08:44:42.486Z,100.00
2023-10-21T08:47:15.748Z,100.00
2023-10-21T08:49:49.244Z,100.00
2023-10-21T08:52:19.651Z,100.00
2023-10-21T08:54:50.032Z,100.00
2023-10-21T08:57:22.926Z,100.00
2023-10-21T08:59:53.937Z,100.00
2023-10-21T09:02:23.806Z,100.00
2023-10-21T09:04:53.832Z,100.00
2023-10-21T09:07:24.057Z,100.00
2023-10-21T09:09:54.040Z,100.00
2023-10-21T09:12:30.871Z,100.00
2023-10-21T09:15:01.697Z,100.00
2023-10-21T09:17:39.823Z,100.00
2023-10-21T09:20:11.657Z,100.00
2023-10-21T09:22:42.729Z,100.00
2023-10-21T09:25:16.465Z,100.00
2023-10-21T09:27:51.149Z,100.00
2023-10-21T09:30:22.618Z,100.00
2023-10-21T09:32:53.461Z,100.00
2023-10-21T09:35:29.027Z,100.00
2023-10-21T09:37:59.042Z,100.00
2023-10-21T09:40:30.137Z,100.00
2023-10-21T09:43:04.781Z,100.00
2023-10-21T09:45:35.703Z,100.00
2023-10-21T09:48:09.226Z,100.00
2023-10-21T09:50:41.474Z,100.00
2023-10-21T09:53:16.576Z,100.00
2023-10-21T09:55:47.152Z,100.00
2023-10-21T09:58:20.849Z,100.00
2023-10-21T10:00:51.345Z,100.00
2023-10-21T10:03:23.345Z,100.00
2023-10-21T10:05:53.594Z,100.00
2023-10-21T10:08:23.439Z,100.00
2023-10-21T10:10:59.216Z,100.00
2023-10-21T10:13:33.797Z,100.00
2023-10-21T10:16:22.555Z,100.00
2023-10-21T10:18:53.163Z,100.00
2023-10-21T10:21:23.105Z,100.00
2023-10-21T10:23:54.721Z,100.00
2023-10-21T10:26:32.606Z,100.00
2023-10-21T10:29:21.098Z,100.00
2023-10-21T10:31:52.975Z,100.00
2023-10-21T10:34:23.663Z,100.00
2023-10-21T10:36:53.501Z,98.94
2023-10-21T10:39:41.404Z,99.22
2023-10-21T10:42:12.022Z,99.42
2023-10-21T10:44:45.533Z,98.44
2023-10-21T10:47:15.799Z,98.44
2023-10-21T10:49:58.524Z,95.76
2023-10-21T10:52:33.127Z,94.38
2023-10-21T10:55:04.187Z,93.92
2023-10-21T10:57:34.231Z,93.59
2023-10-21T11:00:11.901Z,94.10
2023-10-21T11:02:45.991Z,95.99
2023-10-21T11:05:21.519Z,97.15
2023-10-21T11:07:52.035Z,97.39
2023-10-21T11:10:23.452Z,97.08
2023-10-21T11:12:53.865Z,94.98
2023-10-21T11:15:26.679Z,96.37
2023-10-21T11:17:56.787Z,95.90
2023-10-21T11:20:27.428Z,95.54
2023-10-21T11:22:58.089Z,95.07
2023-10-21T11:25:27.948Z,90.53
2023-10-21T11:27:58.028Z,90.22
2023-10-21T11:30:30.680Z,89.40
2023-10-21T11:33:00.633Z,90.95
2023-10-21T11:35:31.585Z,91.73
2023-10-21T11:38:01.586Z,89.27
2023-10-21T11:40:31.949Z,88.09
2023-10-21T11:43:02.536Z,91.10
2023-10-21T11:45:36.126Z,91.11
2023-10-21T11:48:10.604Z,88.56
2023-10-21T11:50:43.549Z,87.63
2023-10-21T11:53:14.619Z,86.92
2023-10-21T11:55:57.401Z,85.34
2023-10-21T11:58:40.903Z,83.43
2023-10-21T12:01:27.265Z,81.81
2023-10-21T12:04:09.664Z,84.31
2023-10-21T12:07:03.449Z,83.21
2023-10-21T12:09:33.532Z,84.81
2023-10-21T12:12:42.553Z,85.74
2023-10-21T12:15:42.715Z,82.66
2023-10-21T12:18:27.774Z,81.61
2023-10-21T12:21:22.045Z,81.89
2023-10-21T12:24:04.366Z,80.67
2023-10-21T12:26:56.924Z,80.93
2023-10-21T12:30:13.956Z,78.57
2023-10-21T12:33:11.144Z,78.99
2023-10-21T12:35:56.416Z,77.11
2023-10-21T12:38:39.134Z,78.73
2023-10-21T12:41:26.585Z,79.08
2023-10-21T12:43:56.669Z,78.55
2023-10-21T12:46:32.418Z,78.97
2023-10-21T12:49:22.868Z,79.48
2023-10-21T12:51:59.908Z,80.09
2023-10-21T12:54:32.704Z,81.07
2023-10-21T12:57:02.812Z,79.19
2023-10-21T12:59:32.753Z,79.00
2023-10-21T13:02:02.613Z,80.64
2023-10-21T13:04:32.548Z,80.28
2023-10-21T13:07:05.916Z,79.83
2023-10-21T13:09:36.064Z,77.25
2023-10-21T13:12:11.113Z,77.91
2023-10-21T13:14:41.224Z,76.36
2023-10-21T13:17:13.723Z,74.24
2023-10-21T13:19:44.218Z,77.01
2023-10-21T13:22:16.876Z,76.24
2023-10-21T13:24:48.863Z,77.53
2023-10-21T13:27:22.984Z,76.29
2023-10-21T13:29:53.097Z,74.84
2023-10-21T13:32:23.736Z,73.21
2023-10-21T13:34:55.460Z,73.29
2023-10-21T13:37:28.029Z,73.98
2023-10-21T13:40:00.285Z,72.61
2023-10-21T13:42:30.289Z,72.21
2023-10-21T13:45:07.027Z,72.61
2023-10-21T13:47:37.097Z,75.36
2023-10-21T13:50:15.140Z,75.76
2023-10-21T13:52:48.586Z,75.42
2023-10-21T13:55:18.922Z,75.12
2023-10-21T13:57:50.104Z,75.01
2023-10-21T14:00:35.671Z,72.78
2023-10-21T14:03:17.180Z,73.06
2023-10-21T14:05:50.347Z,72.24
2023-10-21T14:08:25.585Z,73.56
2023-10-21T14:10:57.504Z,72.91
2023-10-21T14:13:29.685Z,73.84
2023-10-21T14:16:06.380Z,74.03
2023-10-21T14:18:37.175Z,73.51
2023-10-21T14:21:09.281Z,73.98
2023-10-21T14:23:41.872Z,73.33
2023-10-21T14:26:13.885Z,73.48
2023-10-21T14:28:43.847Z,74.45
2023-10-21T14:31:15.010Z,74.35
2023-10-21T14:33:44.924Z,75.54
2023-10-21T14:36:14.891Z,75.34
2023-10-21T14:38:48.321Z,75.28
2023-10-21T14:41:18.417Z,73.95
2023-10-21T14:43:48.330Z,73.39
2023-10-21T14:46:21.057Z,75.38
2023-10-21T14:48:51.035Z,74.59
2023-10-21T14:51:21.047Z,75.91
2023-10-21T14:53:53.642Z,75.42
2023-10-21T14:56:23.514Z,76.03
2023-10-21T14:58:53.380Z,74.24
2023-10-21T15:01:24.765Z,74.29
2023-10-21T15:03:56.367Z,73.23
2023-10-21T15:06:28.035Z,72.44
2023-10-21T15:09:00.785Z,73.21
2023-10-21T15:11:30.812Z,73.60
2023-10-21T15:14:00.722Z,73.65
2023-10-21T15:16:30.649Z,75.31
2023-10-21T15:19:00.639Z,75.11
2023-10-21T15:21:30.553Z,75.77
2023-10-21T15:24:04.106Z,74.58
2023-10-21T15:26:34.990Z,74.75
2023-10-21T15:29:05.474Z,75.62
2023-10-21T15:31:37.248Z,73.67
2023-10-21T15:34:08.497Z,74.53
2023-10-21T15:36:38.426Z,74.95
2023-10-21T15:39:17.661Z,75.29
2023-10-21T15:41:47.554Z,73.25
2023-10-21T15:44:17.556Z,75.04
2023-10-21T15:46:48.114Z,74.79
2023-10-21T15:49:17.957Z,74.97
2023-10-21T15:51:48.308Z,76.47
2023-10-21T15:54:20.954Z,76.62
2023-10-21T15:56:50.819Z,76.32
2023-10-21T15:59:20.689Z,76.96
2023-10-21T16:01:50.677Z,75.56
2023-10-21T16:04:20.756Z,76.43
2023-10-21T16:06:50.721Z,76.92
2023-10-21T16:09:23.236Z,77.43
2023-10-21T16:11:53.162Z,77.27
2023-10-21T16:14:23.021Z,78.10
2023-10-21T16:16:52.898Z,78.33
2023-10-21T16:19:22.784Z,77.29
2023-10-21T16:21:55.638Z,78.29
2023-10-21T16:24:28.431Z,78.32
2023-10-21T16:26:58.328Z,78.66
2023-10-21T16:29:29.029Z,79.38
2023-10-21T16:31:58.949Z,79.93
2023-10-21T16:34:28.998Z,79.45
2023-10-21T16:37:00.130Z,79.59
2023-10-21T16:39:34.216Z,80.07
2023-10-21T16:42:04.153Z,80.15
2023-10-21T16:44:33.969Z,80.22
2023-10-21T16:47:03.867Z,80.81
2023-10-21T16:49:34.032Z,80.40
2023-10-21T16:52:03.930Z,81.11
2023-10-21T16:54:36.611Z,81.05
2023-10-21T16:57:06.759Z,81.72
2023-10-21T16:59:36.763Z,81.62
2023-10-21T17:02:07.109Z,81.54
2023-10-21T17:04:38.980Z,82.11
2023-10-21T17:07:08.966Z,81.94
2023-10-21T17:09:41.617Z,81.45
2023-10-21T17:12:12.077Z,82.28
2023-10-21T17:14:45.345Z,81.65
2023-10-21T17:17:15.264Z,82.03
2023-10-21T17:19:45.130Z,82.43
2023-10-21T17:22:15.086Z,82.76
2023-10-21T17:24:47.730Z,82.28
2023-10-21T17:27:17.698Z,81.86
2023-10-21T17:29:47.610Z,82.46
2023-10-21T17:32:17.443Z,82.67
2023-10-21T17:34:47.338Z,82.88
2023-10-21T17:37:18.522Z,83.15
2023-10-21T17:39:51.087Z,82.66
2023-10-21T17:42:21.827Z,82.80
2023-10-21T17:44:51.766Z,82.60
2023-10-21T17:47:25.352Z,82.28
2023-10-21T17:49:55.399Z,82.18
2023-10-21T17:52:25.268Z,82.69
2023-10-21T17:54:57.886Z,82.23
2023-10-21T17:57:30.817Z,81.67
2023-10-21T18:00:00.924Z,82.67
2023-10-21T18:02:32.574Z,82.66
2023-10-21T18:05:02.526Z,82.02
2023-10-21T18:07:32.414Z,82.39
2023-10-21T18:10:06.262Z,81.00
2023-10-21T18:12:37.553Z,81.78
2023-10-21T18:15:10.541Z,82.41
2023-10-21T18:17:41.806Z,81.41
2023-10-21T18:20:13.286Z,81.01
2023-10-21T18:22:43.218Z,82.14
2023-10-21T18:25:15.903Z,82.08
2023-10-21T18:27:45.921Z,82.06
2023-10-21T18:30:16.832Z,81.50
2023-10-21T18:32:47.897Z,82.20
2023-10-21T18:35:18.286Z,82.38
2023-10-21T18:37:48.166Z,82.41
2023-10-21T18:40:20.708Z,82.87
2023-10-21T18:42:51.965Z,82.61
2023-10-21T18:45:22.026Z,82.36
2023-10-21T18:47:52.003Z,82.46
2023-10-21T18:50:22.470Z,82.90
2023-10-21T18:52:52.417Z,83.09
2023-10-21T18:55:25.029Z,82.81
2023-10-21T18:57:55.036Z,83.15
2023-10-21T19:00:25.036Z,83.13
2023-10-21T19:02:55.063Z,83.66
2023-10-21T19:05:26.772Z,83.93
2023-10-21T19:07:57.103Z,83.89
2023-10-21T19:10:29.580Z,84.03
2023-10-21T19:12:59.471Z,84.04
2023-10-21T19:15:29.484Z,84.23
2023-10-21T19:17:59.509Z,84.09
2023-10-21T19:20:29.405Z,83.92
2023-10-21T19:22:59.685Z,83.29
2023-10-21T19:25:32.261Z,84.08
2023-10-21T19:28:02.206Z,84.12
2023-10-21T19:30:32.166Z,84.31
2023-10-21T19:33:02.145Z,84.64
2023-10-21T19:35:32.229Z,83.65
2023-10-21T19:38:02.075Z,84.01
2023-10-21T19:40:34.539Z,84.14
2023-10-21T19:43:04.480Z,84.76
2023-10-21T19:45:34.348Z,84.53
2023-10-21T19:48:04.398Z,84.43
2023-10-21T19:50:34.304Z,84.68
2023-10-21T19:53:04.294Z,84.78
2023-10-21T19:55:36.813Z,84.75
2023-10-21T19:58:07.861Z,85.08
2023-10-21T20:00:38.996Z,84.79
2023-10-21T20:03:09.837Z,85.05
2023-10-21T20:05:41.515Z,85.08
2023-10-21T20:08:11.791Z,85.13
2023-10-21T20:10:44.296Z,84.81
2023-10-21T20:13:14.162Z,85.12
2023-10-21T20:15:45.417Z,85.23
2023-10-21T20:18:15.632Z,84.96
2023-10-21T20:20:45.500Z,85.29
2023-10-21T20:23:15.419Z,85.00
2023-10-21T20:25:48.563Z,84.83
2023-10-21T20:28:18.616Z,85.05
2023-10-21T20:30:48.626Z,85.03
2023-10-21T20:33:18.564Z,85.29
2023-10-21T20:35:48.446Z,84.82
2023-10-21T20:38:18.849Z,84.40
2023-10-21T20:40:51.437Z,84.45
2023-10-21T20:43:22.827Z,84.87
2023-10-21T20:45:59.927Z,85.19
2023-10-21T20:48:30.105Z,84.44
2023-10-21T20:51:00.033Z,84.62
2023-10-21T20:53:30.216Z,84.67
2023-10-21T20:56:02.696Z,84.33
2023-10-21T20:58:32.915Z,84.43
2023-10-21T21:01:02.830Z,84.55
2023-10-21T21:03:32.815Z,84.57
2023-10-21T21:06:02.966Z,84.51
2023-10-21T21:08:32.834Z,84.85
2023-10-21T21:11:05.773Z,84.51
2023-10-21T21:13:35.702Z,85.04
2023-10-21T21:16:05.766Z,85.54
2023-10-21T21:18:35.795Z,85.50
2023-10-21T21:21:06.220Z,84.81
2023-10-21T21:23:36.183Z,85.55
2023-10-21T21:26:09.732Z,85.84
2023-10-21T21:28:39.738Z,85.92
2023-10-21T21:31:09.828Z,86.05
2023-10-21T21:33:40.141Z,85.81
2023-10-21T21:36:11.083Z,85.66
2023-10-21T21:38:41.083Z,85.90
2023-10-21T21:41:19.724Z,85.42
2023-10-21T21:43:52.866Z,85.78
2023-10-21T21:46:24.540Z,86.37
2023-10-21T21:48:55.228Z,86.25
2023-10-21T21:51:25.290Z,86.61
2023-10-21T21:53:56.927Z,86.25
2023-10-21T21:56:29.429Z,86.77
2023-10-21T21:58:59.649Z,87.05
2023-10-21T22:01:30.100Z,87.16
2023-10-21T22:04:00.936Z,86.65
2023-10-21T22:06:32.224Z,86.89
2023-10-21T22:09:02.148Z,86.97
2023-10-21T22:11:34.918Z,87.29
2023-10-21T22:14:08.175Z,87.12
2023-10-21T22:16:38.199Z,87.19
2023-10-21T22:19:13.349Z,87.30
2023-10-21T22:21:43.301Z,87.34
2023-10-21T22:24:13.308Z,87.17
2023-10-21T22:26:49.644Z,87.13
2023-10-21T22:29:26.251Z,87.23
2023-10-21T22:31:57.514Z,87.08
2023-10-21T22:34:27.422Z,87.06
2023-10-21T22:36:57.279Z,87.45
2023-10-21T22:39:27.283Z,87.49
2023-10-21T22:41:59.856Z,87.15
2023-10-21T22:44:29.878Z,87.44
2023-10-21T22:47:00.161Z,87.02
2023-10-21T22:49:30.072Z,86.73
2023-10-21T22:52:00.198Z,86.26
2023-10-21T22:54:31.349Z,86.39
2023-10-21T22:57:04.985Z,86.46
2023-10-21T22:59:34.998Z,86.43
2023-10-21T23:02:05.107Z,86.79
2023-10-21T23:04:35.224Z,86.54
2023-10-21T23:07:05.328Z,86.71
2023-10-21T23:09:40.823Z,86.94
2023-10-21T23:12:13.366Z,85.28
2023-10-21T23:14:44.216Z,85.66
2023-10-21T23:17:14.804Z,85.69
2023-10-21T23:19:45.314Z,85.09
2023-10-21T23:22:15.807Z,85.41
2023-10-21T23:24:46.727Z,84.99
2023-10-21T23:27:19.254Z,85.16
2023-10-21T23:29:49.130Z,84.93
2023-10-21T23:32:19.047Z,85.64
2023-10-21T23:34:49.002Z,84.61
2023-10-21T23:37:18.834Z,84.69
2023-10-21T23:39:49.188Z,85.46
2023-10-21T23:42:23.517Z,84.95
2023-10-21T23:44:53.409Z,84.40
2023-10-21T23:47:23.248Z,85.49
2023-10-21T23:49:55.180Z,85.66
2023-10-21T23:52:25.101Z,85.65
2023-10-21T23:54:55.521Z,85.96
2023-10-21T23:57:28.076Z,85.55
2023-10-21T23:59:58.017Z,85.50
